createdAt,value
2017-09-08T00:00:05.092Z,5.20
2017-09-08T00:02:32.687Z,5.97
2017-09-08T00:05:00.157Z,5.47
2017-09-08T00:07:27.667Z,5.13
2017-09-08T00:09:55.231Z,4.50
2017-09-08T00:12:22.699Z,5.60
2017-09-08T00:14:50.940Z,4.70
2017-09-08T00:17:18.409Z,4.63
2017-09-08T00:19:45.874Z,5.10
2017-09-08T00:22:13.438Z,4.67
2017-09-08T00:24:41.698Z,5.20
2017-09-08T00:27:09.171Z,5.50
2017-09-08T00:29:37.443Z,6.00
2017-09-08T00:32:04.900Z,5.50
2017-09-08T00:34:33.168Z,5.53
2017-09-08T00:37:00.631Z,5.67
2017-09-08T00:39:29.819Z,5.60
2017-09-08T00:41:57.285Z,5.47
2017-09-08T00:44:25.551Z,5.20
2017-09-08T00:46:53.088Z,5.80
2017-09-08T00:49:20.567Z,5.43
2017-09-08T00:51:49.367Z,5.40
2017-09-08T00:54:17.595Z,5.43
2017-09-08T00:56:45.095Z,4.17
2017-09-08T00:59:13.332Z,5.40
2017-09-08T01:01:41.215Z,4.50
2017-09-08T01:04:08.700Z,5.03
2017-09-08T01:06:36.927Z,5.50
2017-09-08T01:09:04.414Z,5.10
2017-09-08T01:11:31.911Z,5.67
2017-09-08T01:13:59.449Z,6.80
2017-09-08T01:16:27.677Z,5.77
2017-09-08T01:18:55.143Z,7.20
2017-09-08T01:21:22.603Z,6.40
2017-09-08T01:23:50.062Z,7.37
2017-09-08T01:26:17.643Z,7.47
2017-09-08T01:28:45.885Z,7.20
2017-09-08T01:31:13.359Z,6.77
2017-09-08T01:33:40.865Z,6.30
2017-09-08T01:36:08.319Z,8.00
2017-09-08T01:38:35.848Z,6.77
2017-09-08T01:41:04.137Z,6.00
2017-09-08T01:43:32.391Z,6.87
2017-09-08T01:45:59.960Z,6.60
2017-09-08T01:48:28.206Z,7.03
2017-09-08T01:50:55.692Z,6.60
2017-09-08T01:53:23.148Z,7.00
2017-09-08T01:55:50.623Z,6.97
2017-09-08T01:58:18.856Z,8.30
2017-09-08T02:00:46.319Z,9.20
2017-09-08T02:03:13.801Z,9.03
2017-09-08T02:05:43.041Z,8.10
2017-09-08T02:08:10.503Z,8.50
2017-09-08T02:10:37.971Z,8.00
2017-09-08T02:13:05.452Z,8.87
2017-09-08T02:15:33.806Z,8.93
2017-09-08T02:18:01.297Z,8.60
2017-09-08T02:20:28.765Z,8.27
2017-09-08T02:22:57.005Z,10.17
2017-09-08T02:25:24.475Z,9.80
2017-09-08T02:27:51.975Z,8.40
2017-09-08T02:30:19.434Z,9.17
2017-09-08T02:32:46.914Z,10.00
2017-09-08T02:35:14.396Z,9.40
2017-09-08T02:37:41.877Z,9.20
2017-09-08T02:40:10.149Z,8.33
2017-09-08T02:42:38.381Z,9.23
2017-09-08T02:45:05.827Z,9.40
2017-09-08T02:47:33.310Z,8.27
2017-09-08T02:50:00.763Z,8.67
2017-09-08T02:52:28.237Z,8.53
2017-09-08T02:54:56.776Z,8.53
2017-09-08T02:57:24.231Z,8.03
2017-09-08T02:59:51.696Z,7.40
2017-09-08T03:02:19.168Z,8.60
2017-09-08T03:04:46.626Z,9.30
2017-09-08T03:07:14.091Z,8.17
2017-09-08T03:09:41.560Z,9.13
2017-09-08T03:12:09.032Z,11.10
2017-09-08T03:14:37.265Z,9.73
2017-09-08T03:17:04.759Z,10.60
2017-09-08T03:19:33.355Z,9.77
2017-09-08T03:22:01.164Z,10.30
2017-09-08T03:24:28.640Z,10.10
2017-09-08T03:26:56.103Z,10.50
2017-09-08T03:29:23.583Z,10.30
2017-09-08T03:31:51.827Z,9.70
2017-09-08T03:34:19.292Z,13.40
2017-09-08T03:36:46.756Z,13.90
2017-09-08T03:39:14.232Z,13.67
2017-09-08T03:41:42.454Z,13.27
2017-09-08T03:44:09.911Z,14.23
2017-09-08T03:46:37.391Z,17.07
2017-09-08T03:49:04.863Z,17.03
2017-09-08T03:51:32.324Z,14.47
2017-09-08T03:54:00.596Z,14.87
2017-09-08T03:56:28.056Z,14.50
2017-09-08T03:58:56.292Z,15.40
2017-09-08T04:01:23.812Z,14.73
2017-09-08T04:03:51.320Z,14.90
2017-09-08T04:06:18.827Z,14.23
2017-09-08T04:08:46.302Z,13.97
2017-09-08T04:11:13.771Z,12.67
2017-09-08T04:13:41.236Z,9.53
2017-09-08T04:16:08.774Z,11.53
2017-09-08T04:18:36.236Z,9.93
2017-09-08T04:21:03.758Z,10.53
2017-09-08T04:23:32.005Z,9.47
2017-09-08T04:26:00.304Z,9.73
2017-09-08T04:28:28.559Z,12.03
2017-09-08T04:30:56.031Z,11.40
2017-09-08T04:33:24.632Z,13.93
2017-09-08T04:35:52.468Z,16.13
2017-09-08T04:38:19.938Z,15.77
2017-09-08T04:40:48.225Z,15.63
2017-09-08T04:43:15.662Z,17.60
2017-09-08T04:45:43.140Z,17.37
2017-09-08T04:48:11.363Z,16.63
2017-09-08T04:50:38.831Z,16.93
2017-09-08T04:53:06.309Z,18.30
2017-09-08T04:55:33.771Z,17.67
2017-09-08T04:58:02.001Z,17.30
2017-09-08T05:00:29.478Z,18.70
2017-09-08T05:02:56.967Z,19.03
2017-09-08T05:05:25.204Z,19.77
2017-09-08T05:07:52.713Z,19.97
2017-09-08T05:10:20.950Z,18.07
2017-09-08T05:12:48.645Z,20.00
2017-09-08T05:15:16.882Z,19.37
2017-09-08T05:17:44.348Z,18.50
2017-09-08T05:20:11.904Z,16.53
2017-09-08T05:22:39.400Z,18.20
2017-09-08T05:25:06.916Z,16.70
2017-09-08T05:27:34.375Z,16.77
2017-09-08T05:30:01.850Z,17.57
2017-09-08T05:32:30.112Z,19.60
2017-09-08T05:34:57.681Z,16.07
2017-09-08T05:37:25.927Z,17.37
2017-09-08T05:39:53.395Z,17.00
2017-09-08T05:42:21.217Z,16.07
2017-09-08T05:44:48.696Z,12.90
2017-09-08T05:47:16.164Z,11.80
2017-09-08T05:49:43.645Z,12.77
2017-09-08T05:52:12.208Z,11.00
2017-09-08T05:54:40.703Z,10.77
2017-09-08T05:57:08.979Z,11.73
2017-09-08T05:59:36.457Z,12.03
2017-09-08T06:02:04.694Z,12.10
2017-09-08T06:04:32.305Z,12.73
2017-09-08T06:06:59.784Z,10.53
2017-09-08T06:09:27.267Z,13.33
2017-09-08T06:11:54.789Z,11.17
2017-09-08T06:14:22.256Z,11.70
2017-09-08T06:16:49.730Z,11.53
2017-09-08T06:19:17.184Z,9.80
2017-09-08T06:21:44.682Z,9.00
2017-09-08T06:24:12.941Z,10.17
2017-09-08T06:26:40.412Z,10.17
2017-09-08T06:29:08.975Z,10.97
2017-09-08T06:31:36.538Z,11.00
2017-09-08T06:34:03.994Z,10.83
2017-09-08T06:36:32.572Z,10.90
2017-09-08T06:39:00.036Z,11.57
2017-09-08T06:41:27.491Z,10.83
2017-09-08T06:43:55.051Z,9.90
2017-09-08T06:46:22.553Z,11.40
2017-09-08T06:48:50.019Z,8.13
2017-09-08T06:51:17.523Z,8.70
2017-09-08T06:53:45.087Z,9.30
2017-09-08T06:56:13.311Z,9.50
2017-09-08T06:58:40.783Z,8.60
2017-09-08T07:01:08.632Z,9.83
2017-09-08T07:03:36.120Z,9.60
2017-09-08T07:06:03.588Z,8.87
2017-09-08T07:08:31.060Z,9.33
2017-09-08T07:10:58.612Z,8.13
2017-09-08T07:13:26.084Z,8.53
2017-09-08T07:15:54.346Z,8.43
2017-09-08T07:18:22.670Z,9.20
2017-09-08T07:20:50.163Z,7.93
2017-09-08T07:23:17.623Z,8.30
2017-09-08T07:25:45.108Z,7.60
2017-09-08T07:28:13.363Z,8.93
2017-09-08T07:30:40.923Z,8.00
2017-09-08T07:33:08.476Z,7.73
2017-09-08T07:35:35.988Z,7.57
2017-09-08T07:38:03.465Z,6.60
2017-09-08T07:40:30.927Z,7.80
2017-09-08T07:42:58.407Z,7.97
2017-09-08T07:45:25.865Z,7.93
2017-09-08T07:47:53.318Z,8.00
2017-09-08T07:50:20.796Z,7.13
2017-09-08T07:52:49.028Z,7.67
2017-09-08T07:55:16.489Z,9.37
2017-09-08T07:57:43.964Z,7.20
2017-09-08T08:00:11.423Z,7.30
2017-09-08T08:02:38.884Z,7.27
2017-09-08T08:05:07.138Z,6.97
2017-09-08T08:07:34.588Z,6.70
2017-09-08T08:10:02.051Z,6.30
2017-09-08T08:12:29.522Z,7.80
2017-09-08T08:14:56.982Z,6.27
2017-09-08T08:17:24.445Z,5.77
2017-09-08T08:19:51.938Z,6.20
2017-09-08T08:22:19.406Z,5.83
2017-09-08T08:24:46.898Z,5.87
2017-09-08T08:27:14.368Z,4.33
2017-09-08T08:29:42.643Z,5.07
2017-09-08T08:32:10.190Z,4.47
2017-09-08T08:34:37.666Z,4.30
2017-09-08T08:37:05.927Z,4.40
2017-09-08T08:39:33.383Z,4.17
2017-09-08T08:42:00.935Z,4.90
2017-09-08T08:44:28.403Z,5.20
2017-09-08T08:46:55.867Z,5.00
2017-09-08T08:49:24.127Z,4.90
2017-09-08T08:51:51.619Z,6.00
2017-09-08T08:54:19.080Z,5.57
2017-09-08T08:56:46.640Z,4.80
2017-09-08T08:59:14.166Z,5.70
2017-09-08T09:01:41.628Z,4.90
2017-09-08T09:04:09.381Z,5.10
2017-09-08T09:06:36.835Z,4.70
2017-09-08T09:09:04.300Z,4.00
2017-09-08T09:11:32.055Z,4.67
2017-09-08T09:13:59.512Z,3.93
2017-09-08T09:16:26.977Z,3.30
2017-09-08T09:18:54.533Z,4.83
2017-09-08T09:21:22.508Z,4.00
2017-09-08T09:23:50.166Z,4.23
2017-09-08T09:26:17.920Z,4.30
2017-09-08T09:28:45.382Z,4.30
2017-09-08T09:31:12.837Z,3.80
2017-09-08T09:33:40.312Z,4.17
2017-09-08T09:36:08.530Z,4.47
2017-09-08T09:38:35.992Z,3.80
2017-09-08T09:41:03.456Z,3.63
2017-09-08T09:43:30.920Z,3.83
2017-09-08T09:45:58.376Z,3.13
2017-09-08T09:48:25.846Z,3.50
2017-09-08T09:50:53.311Z,3.10
2017-09-08T09:53:20.768Z,3.30
2017-09-08T09:55:48.322Z,3.60
2017-09-08T09:58:16.839Z,3.80
2017-09-08T10:00:45.059Z,3.17
2017-09-08T10:03:12.527Z,3.27
2017-09-08T10:05:40.207Z,3.80
2017-09-08T10:08:08.442Z,3.37
2017-09-08T10:10:35.940Z,3.30
2017-09-08T10:13:04.173Z,4.30
2017-09-08T10:15:31.627Z,4.47
2017-09-08T10:17:59.099Z,4.90
2017-09-08T10:20:26.562Z,5.50
2017-09-08T10:22:54.131Z,5.33
2017-09-08T10:25:21.793Z,6.50
2017-09-08T10:27:49.352Z,5.37
2017-09-08T10:30:16.816Z,5.60
2017-09-08T10:32:44.317Z,5.43
2017-09-08T10:35:11.798Z,6.10
2017-09-08T10:37:39.392Z,5.97
2017-09-08T10:40:06.868Z,6.57
2017-09-08T10:42:35.145Z,5.60
2017-09-08T10:45:03.491Z,5.50
2017-09-08T10:47:31.003Z,5.80
2017-09-08T10:49:58.487Z,4.50
2017-09-08T10:52:25.969Z,4.93
2017-09-08T10:54:53.524Z,4.63
2017-09-08T10:57:21.087Z,4.10
2017-09-08T10:59:48.539Z,4.80
2017-09-08T11:02:16.299Z,3.63
2017-09-08T11:04:43.868Z,3.80
2017-09-08T11:07:12.105Z,3.93
2017-09-08T11:09:39.896Z,3.83
2017-09-08T11:12:07.432Z,3.97
2017-09-08T11:14:34.897Z,4.17
2017-09-08T11:17:02.472Z,4.23
2017-09-08T11:19:29.936Z,5.10
2017-09-08T11:21:57.391Z,5.13
2017-09-08T11:24:25.630Z,5.00
2017-09-08T11:26:53.123Z,4.67
2017-09-08T11:29:20.585Z,4.90
2017-09-08T11:31:48.814Z,4.77
2017-09-08T11:34:21.924Z,5.93
2017-09-08T11:36:55.199Z,4.73
2017-09-08T11:39:22.658Z,6.47
2017-09-08T11:41:50.123Z,5.07
2017-09-08T11:44:17.600Z,5.00
2017-09-08T11:46:45.068Z,5.67
2017-09-08T11:49:13.297Z,6.43
2017-09-08T11:51:40.780Z,5.07
2017-09-08T11:54:08.998Z,3.73
2017-09-08T11:56:37.236Z,4.60
2017-09-08T11:59:04.729Z,5.17
2017-09-08T12:01:32.246Z,4.10
2017-09-08T12:03:59.747Z,4.00
2017-09-08T12:06:27.582Z,4.63
2017-09-08T12:08:56.244Z,6.10
2017-09-08T12:11:23.708Z,3.50
2017-09-08T12:13:51.517Z,3.60
2017-09-08T12:16:18.979Z,3.47
2017-09-08T12:18:46.442Z,3.47
2017-09-08T12:21:14.172Z,3.40
2017-09-08T12:23:42.414Z,4.60
2017-09-08T12:26:09.878Z,4.20
2017-09-08T12:28:37.365Z,4.70
2017-09-08T12:31:05.604Z,3.70
2017-09-08T12:33:33.060Z,3.20
2017-09-08T12:36:00.532Z,3.43
2017-09-08T12:38:28.005Z,4.43
2017-09-08T12:40:56.231Z,4.67
2017-09-08T12:43:23.699Z,4.00
2017-09-08T12:45:51.160Z,4.03
2017-09-08T12:48:18.620Z,3.83
2017-09-08T12:50:46.087Z,3.87
2017-09-08T12:53:13.560Z,3.40
2017-09-08T12:55:41.791Z,4.13
2017-09-08T12:58:09.265Z,3.43
2017-09-08T13:00:38.137Z,2.93
2017-09-08T13:03:05.595Z,2.60
2017-09-08T13:05:33.263Z,3.17
2017-09-08T13:08:00.724Z,2.87
2017-09-08T13:10:28.188Z,3.00
2017-09-08T13:12:55.660Z,2.87
2017-09-08T13:15:23.168Z,2.53
2017-09-08T13:17:50.632Z,2.17
2017-09-08T13:20:18.100Z,2.83
2017-09-08T13:22:45.568Z,2.30
2017-09-08T13:25:13.024Z,2.13
2017-09-08T13:27:40.493Z,2.30
2017-09-08T13:30:07.955Z,2.37
2017-09-08T13:32:35.416Z,2.50
2017-09-08T13:35:03.656Z,3.13
2017-09-08T13:37:31.172Z,3.00
2017-09-08T13:39:58.660Z,3.53
2017-09-08T13:42:26.132Z,3.23
2017-09-08T13:44:53.607Z,3.67
2017-09-08T13:47:21.087Z,2.87
2017-09-08T13:49:49.356Z,3.87
2017-09-08T13:52:16.812Z,2.90
2017-09-08T13:54:45.046Z,3.00
2017-09-08T13:57:12.528Z,3.27
2017-09-08T13:59:40.003Z,2.93
2017-09-08T14:02:08.272Z,3.40
2017-09-08T14:04:36.546Z,3.07
2017-09-08T14:07:04.101Z,2.70
2017-09-08T14:09:31.592Z,3.17
2017-09-08T14:11:59.060Z,2.90
2017-09-08T14:14:26.529Z,2.97
2017-09-08T14:16:54.676Z,2.60
2017-09-08T14:19:22.926Z,2.50
2017-09-08T14:21:50.391Z,2.80
2017-09-08T14:24:18.627Z,3.00
2017-09-08T14:26:46.710Z,2.30
2017-09-08T14:29:14.186Z,2.60
2017-09-08T14:31:41.746Z,2.17
2017-09-08T14:34:09.207Z,2.80
2017-09-08T14:36:37.434Z,3.27
2017-09-08T14:39:04.920Z,2.00
2017-09-08T14:41:33.157Z,2.83
2017-09-08T14:44:00.645Z,2.83
2017-09-08T14:46:28.099Z,2.27
2017-09-08T14:48:56.621Z,2.07
2017-09-08T14:51:24.852Z,2.17
2017-09-08T14:53:52.314Z,2.40
2017-09-08T14:56:20.076Z,2.07
2017-09-08T14:58:47.719Z,2.77
2017-09-08T15:01:15.247Z,2.47
2017-09-08T15:03:43.599Z,2.73
2017-09-08T15:06:11.145Z,2.00
2017-09-08T15:08:39.419Z,2.00
2017-09-08T15:11:06.930Z,2.63
2017-09-08T15:13:34.391Z,2.43
2017-09-08T15:16:02.018Z,2.40
2017-09-08T15:18:30.378Z,1.83
2017-09-08T15:20:57.917Z,2.00
2017-09-08T15:23:25.389Z,2.47
2017-09-08T15:25:52.857Z,2.13
2017-09-08T15:28:21.085Z,2.33
2017-09-08T15:30:48.540Z,3.93
2017-09-08T15:33:16.020Z,3.73
2017-09-08T15:35:43.512Z,3.00
2017-09-08T15:38:11.066Z,1.70
2017-09-08T15:40:38.698Z,1.40
2017-09-08T15:43:06.172Z,1.20
2017-09-08T15:45:33.623Z,1.83
2017-09-08T15:48:01.100Z,1.43
2017-09-08T15:50:29.339Z,1.50
2017-09-08T15:52:56.812Z,1.17
2017-09-08T15:55:24.295Z,1.60
2017-09-08T15:57:52.516Z,2.00
2017-09-08T16:00:20.002Z,1.37
2017-09-08T16:02:47.463Z,1.80
2017-09-08T16:05:15.790Z,1.90
2017-09-08T16:07:43.336Z,2.33
2017-09-08T16:10:10.809Z,2.17
2017-09-08T16:12:38.267Z,2.90
2017-09-08T16:15:05.768Z,2.50
2017-09-08T16:17:34.105Z,2.90
2017-09-08T16:20:01.615Z,2.93
2017-09-08T16:22:29.839Z,3.27
2017-09-08T16:24:57.309Z,2.67
2017-09-08T16:27:24.791Z,2.97
2017-09-08T16:29:52.276Z,2.50
2017-09-08T16:32:19.760Z,3.50
2017-09-08T16:34:47.235Z,3.40
2017-09-08T16:37:14.721Z,3.03
2017-09-08T16:39:42.971Z,2.97
2017-09-08T16:42:10.445Z,2.90
2017-09-08T16:44:37.920Z,3.93
2017-09-08T16:47:06.163Z,2.80
2017-09-08T16:49:33.619Z,3.73
2017-09-08T16:52:01.092Z,3.00
2017-09-08T16:54:28.562Z,3.10
2017-09-08T16:56:56.783Z,2.80
2017-09-08T16:59:24.288Z,2.03
2017-09-08T17:01:51.761Z,3.07
2017-09-08T17:04:19.996Z,3.93
2017-09-08T17:06:47.455Z,3.97
2017-09-08T17:09:14.948Z,2.93
2017-09-08T17:11:43.197Z,3.50
2017-09-08T17:14:10.661Z,3.37
2017-09-08T17:16:38.123Z,2.80
2017-09-08T17:19:06.347Z,3.33
2017-09-08T17:21:33.803Z,3.37
2017-09-08T17:24:03.363Z,3.87
2017-09-08T17:26:31.608Z,3.53
2017-09-08T17:28:59.080Z,3.20
2017-09-08T17:31:26.560Z,4.50
2017-09-08T17:33:54.835Z,4.87
2017-09-08T17:36:23.052Z,4.30
2017-09-08T17:38:50.523Z,4.90
2017-09-08T17:41:17.984Z,5.20
2017-09-08T17:43:45.439Z,4.20
2017-09-08T17:46:12.968Z,5.60
2017-09-08T17:48:40.427Z,5.27
2017-09-08T17:51:07.903Z,4.40
2017-09-08T17:53:35.387Z,3.90
2017-09-08T17:56:02.839Z,4.00
2017-09-08T17:58:30.294Z,4.20
2017-09-08T18:00:57.808Z,4.53
2017-09-08T18:03:25.293Z,3.83
2017-09-08T18:05:52.788Z,3.50
2017-09-08T18:08:20.267Z,3.33
2017-09-08T18:10:47.788Z,3.23
2017-09-08T18:13:15.249Z,3.00
2017-09-08T18:15:43.491Z,2.47
2017-09-08T18:18:10.949Z,2.60
2017-09-08T18:20:38.413Z,2.67
2017-09-08T18:23:05.890Z,2.47
2017-09-08T18:25:34.119Z,2.77
2017-09-08T18:28:01.615Z,2.60
2017-09-08T18:30:29.076Z,3.33
2017-09-08T18:32:56.539Z,2.97
2017-09-08T18:35:24.008Z,2.43
2017-09-08T18:37:52.242Z,3.50
2017-09-08T18:40:19.707Z,3.17
2017-09-08T18:42:47.172Z,3.13
2017-09-08T18:45:14.649Z,3.53
2017-09-08T18:47:42.116Z,3.20
2017-09-08T18:50:10.353Z,3.43
2017-09-08T18:52:37.876Z,3.70
2017-09-08T18:55:05.345Z,4.27
2017-09-08T18:57:32.831Z,4.27
2017-09-08T19:00:00.596Z,4.23
2017-09-08T19:02:28.065Z,4.90
2017-09-08T19:04:56.325Z,5.07
2017-09-08T19:07:24.092Z,5.70
2017-09-08T19:09:51.572Z,5.30
2017-09-08T19:12:19.040Z,5.70
2017-09-08T19:14:46.526Z,6.33
2017-09-08T19:17:13.991Z,5.40
2017-09-08T19:19:41.460Z,5.40
2017-09-08T19:22:08.936Z,6.37
2017-09-08T19:24:36.426Z,5.30
2017-09-08T19:27:03.884Z,5.47
2017-09-08T19:29:31.359Z,5.73
2017-09-08T19:31:58.824Z,2.60
2017-09-08T19:34:26.306Z,1.80
2017-09-08T19:36:54.580Z,2.07
2017-09-08T19:39:22.044Z,1.50
2017-09-08T19:41:49.500Z,1.80
2017-09-08T19:44:16.972Z,2.17
2017-09-08T19:46:45.234Z,2.03
2017-09-08T19:49:12.720Z,2.57
2017-09-08T19:51:40.187Z,2.40
2017-09-08T19:54:08.407Z,2.03
2017-09-08T19:56:35.896Z,2.00
2017-09-08T19:59:04.133Z,2.63
2017-09-08T20:01:31.611Z,2.00
2017-09-08T20:03:59.087Z,2.13
2017-09-08T20:06:26.584Z,1.67
2017-09-08T20:08:54.056Z,2.07
2017-09-08T20:11:21.525Z,2.03
2017-09-08T20:13:49.010Z,1.97
2017-09-08T20:16:16.480Z,4.83
2017-09-08T20:18:44.713Z,7.03
2017-09-08T20:21:12.224Z,7.60
2017-09-08T20:23:39.682Z,6.13
2017-09-08T20:26:07.163Z,5.20
2017-09-08T20:28:34.641Z,6.77
2017-09-08T20:31:02.103Z,7.23
2017-09-08T20:33:29.569Z,7.00
2017-09-08T20:35:57.061Z,6.00
2017-09-08T20:38:25.296Z,7.40
2017-09-08T20:40:52.800Z,6.20
2017-09-08T20:43:20.280Z,5.83
2017-09-08T20:45:47.744Z,5.33
2017-09-08T20:48:15.213Z,5.87
2017-09-08T20:50:42.692Z,7.20
2017-09-08T20:53:10.168Z,6.83
2017-09-08T20:55:38.395Z,5.90
2017-09-08T20:58:05.877Z,7.93
2017-09-08T21:00:33.336Z,6.57
2017-09-08T21:03:00.876Z,5.40
2017-09-08T21:05:28.471Z,6.27
2017-09-08T21:07:56.730Z,6.47
2017-09-08T21:10:24.291Z,6.43
2017-09-08T21:12:51.772Z,5.20
2017-09-08T21:15:19.308Z,6.57
2017-09-08T21:17:46.860Z,4.83
2017-09-08T21:20:14.576Z,5.40
2017-09-08T21:22:42.816Z,5.13
2017-09-08T21:25:10.309Z,6.50
2017-09-08T21:27:37.815Z,6.10
2017-09-08T21:30:05.276Z,6.33
2017-09-08T21:32:32.917Z,5.60
2017-09-08T21:35:00.426Z,6.03
2017-09-08T21:37:28.627Z,6.00
2017-09-08T21:39:56.121Z,6.20
2017-09-08T21:42:23.599Z,6.23
2017-09-08T21:44:51.860Z,5.50
2017-09-08T21:47:19.322Z,7.13
2017-09-08T21:49:47.563Z,6.37
2017-09-08T21:52:15.828Z,6.93
2017-09-08T21:54:43.315Z,6.33
2017-09-08T21:57:10.785Z,5.90
2017-09-08T21:59:39.065Z,5.43
2017-09-08T22:02:07.295Z,6.47
2017-09-08T22:04:34.780Z,5.87
2017-09-08T22:07:02.247Z,5.50
2017-09-08T22:09:30.477Z,6.40
2017-09-08T22:11:58.004Z,6.17
2017-09-08T22:14:25.533Z,6.10
2017-09-08T22:16:54.403Z,5.97
2017-09-08T22:19:21.883Z,6.10
2017-09-08T22:21:49.405Z,6.33
2017-09-08T22:24:17.567Z,5.83
2017-09-08T22:26:45.048Z,7.27
2017-09-08T22:29:12.990Z,6.50
2017-09-08T22:31:40.455Z,6.30
2017-09-08T22:34:07.936Z,7.43
2017-09-08T22:36:35.509Z,6.63
2017-09-08T22:39:03.066Z,6.00
2017-09-08T22:41:30.539Z,6.93
2017-09-08T22:43:58.759Z,7.23
2017-09-08T22:46:26.232Z,9.23
2017-09-08T22:48:53.728Z,7.70
2017-09-08T22:51:21.962Z,7.70
2017-09-08T22:53:49.427Z,7.40
2017-09-08T22:56:16.918Z,8.30
2017-09-08T22:58:45.151Z,6.03
2017-09-08T23:01:12.639Z,6.17
2017-09-08T23:03:40.876Z,6.77
2017-09-08T23:06:08.360Z,4.60
2017-09-08T23:08:35.831Z,4.50
2017-09-08T23:11:04.398Z,6.33
2017-09-08T23:13:31.879Z,5.73
2017-09-08T23:16:00.134Z,5.60
2017-09-08T23:18:27.604Z,6.00
2017-09-08T23:20:55.842Z,6.33
2017-09-08T23:23:23.328Z,5.27
2017-09-08T23:25:50.880Z,5.13
2017-09-08T23:28:18.341Z,5.70
2017-09-08T23:30:45.813Z,6.50
2017-09-08T23:33:14.757Z,7.30
2017-09-08T23:35:42.249Z,6.87
2017-09-08T23:38:09.733Z,6.80
2017-09-08T23:40:37.251Z,5.93
2017-09-08T23:43:04.723Z,7.30
2017-09-08T23:45:32.952Z,5.77
2017-09-08T23:48:00.432Z,6.07
2017-09-08T23:50:27.896Z,7.10
2017-09-08T23:52:55.355Z,6.37
2017-09-08T23:55:22.919Z,7.77
2017-09-08T23:57:51.012Z,7.57
